Time;durP1;ratioP1;P1;durP2;ratioP2;P2;SDS_P1;SDS_P2;PMS_P1;PMS_P2;Temp;Humidity;BMP_temperature;BMP_pressure;BME280_temperature;BME280_humidity;BME280_pressure;Samples;Min_cycle;Max_cycle;Signal;HPM_P1;HPM_P2
2024/01/29 00:01:37;;;;;;;21.45;10.68;;;0.00;99.90;;;;;;4991678;28;20450;-72
2024/01/29 00:04:03;;;;;;;24.20;9.60;;;-0.10;99.90;;;;;;5000400;28;20033;-71
2024/01/29 00:06:29;;;;;;;19.77;8.57;;;-0.20;99.90;;;;;;5007660;28;20044;-70
2024/01/29 00:08:56;;;;;;;18.52;8.70;;;-0.20;99.90;;;;;;4997641;28;20046;-70
2024/01/29 00:11:22;;;;;;;18.88;8.45;;;0.00;99.90;;;;;;5007352;28;20088;-70
2024/01/29 00:13:48;;;;;;;19.67;7.93;;;0.00;99.90;;;;;;5007151;28;20382;-71
2024/01/29 00:16:13;;;;;;;18.75;7.88;;;0.00;99.90;;;;;;4994655;28;20549;-71
2024/01/29 00:18:39;;;;;;;19.30;8.77;;;0.20;99.90;;;;;;5002576;28;20060;-73
2024/01/29 00:21:04;;;;;;;27.83;11.10;;;0.30;99.90;;;;;;5008099;28;20034;-71
2024/01/29 00:23:30;;;;;;;28.40;9.90;;;0.30;99.90;;;;;;5008007;28;20042;-70
2024/01/29 00:25:56;;;;;;;21.77;9.50;;;0.20;99.90;;;;;;5006251;28;20026;-71
2024/01/29 00:28:21;;;;;;;23.02;8.95;;;0.20;99.90;;;;;;5005800;28;20070;-70
2024/01/29 00:30:47;;;;;;;20.77;9.55;;;0.10;99.90;;;;;;5006972;28;20038;-71
2024/01/29 00:33:13;;;;;;;25.20;10.18;;;0.10;99.90;;;;;;5007923;28;20064;-70
2024/01/29 00:35:39;;;;;;;23.15;10.73;;;0.00;99.90;;;;;;4995331;28;20037;-71
2024/01/29 00:38:05;;;;;;;21.30;10.20;;;-0.20;99.90;;;;;;5004947;28;20048;-71
2024/01/29 00:40:32;;;;;;;19.20;8.77;;;-0.30;99.90;;;;;;4987310;28;20506;-71
2024/01/29 00:43:01;;;;;;;23.83;9.27;;;-0.50;99.90;;;;;;5002676;28;20104;-71
2024/01/29 00:45:27;;;;;;;23.35;9.45;;;-0.50;99.90;;;;;;4992003;28;20054;-71
2024/01/29 00:47:52;;;;;;;19.50;9.52;;;-0.40;99.90;;;;;;4991412;28;20030;-70
2024/01/29 00:50:19;;;;;;;17.45;8.85;;;-0.50;99.90;;;;;;5007710;28;20029;-71
2024/01/29 00:52:45;;;;;;;22.48;9.90;;;-0.70;99.90;;;;;;5010981;28;20120;-72
2024/01/29 00:55:11;;;;;;;23.42;8.82;;;-0.60;99.90;;;;;;5010708;28;20104;-71
2024/01/29 00:57:37;;;;;;;22.98;9.55;;;-0.70;99.90;;;;;;5011546;28;20423;-71
2024/01/29 01:00:03;;;;;;;21.58;9.20;;;-0.70;99.90;;;;;;5007522;28;20112;-71
2024/01/29 01:02:28;;;;;;;24.65;9.40;;;-0.60;99.90;;;;;;5004453;28;20113;-71
2024/01/29 01:04:54;;;;;;;21.27;9.40;;;-0.70;99.90;;;;;;4995985;28;20100;-71
2024/01/29 01:07:20;;;;;;;19.60;9.25;;;-0.70;99.90;;;;;;5006274;28;20030;-71
2024/01/29 01:09:45;;;;;;;21.35;9.13;;;-0.80;99.90;;;;;;5001630;28;20045;-72
2024/01/29 01:12:11;;;;;;;26.02;9.10;;;-0.80;99.90;;;;;;5010607;28;20037;-71
2024/01/29 01:14:36;;;;;;;20.15;8.50;;;-0.80;99.90;;;;;;5010822;28;20045;-71
2024/01/29 01:17:02;;;;;;;25.73;9.05;;;-0.80;99.90;;;;;;4994244;28;20026;-70
2024/01/29 01:19:28;;;;;;;18.33;7.80;;;-0.80;99.90;;;;;;4991698;28;20463;-71
2024/01/29 01:21:53;;;;;;;25.05;9.45;;;-0.80;99.90;;;;;;4999557;28;20030;-72
2024/01/29 01:24:19;;;;;;;23.20;9.30;;;-0.70;99.90;;;;;;5008780;28;20430;-71
2024/01/29 01:26:44;;;;;;;21.33;9.25;;;-0.70;99.90;;;;;;5008127;28;20040;-69
2024/01/29 01:29:10;;;;;;;22.63;10.23;;;-0.70;99.90;;;;;;5002184;28;20573;-69
2024/01/29 01:31:35;;;;;;;21.90;9.68;;;-0.80;99.90;;;;;;5008435;28;20033;-69
2024/01/29 01:34:01;;;;;;;19.38;8.95;;;-0.90;99.90;;;;;;4992197;28;20646;-71
2024/01/29 01:36:27;;;;;;;23.45;9.80;;;-0.90;99.90;;;;;;4992060;28;20041;-71
2024/01/29 01:38:52;;;;;;;21.65;9.00;;;-0.90;99.90;;;;;;5005396;28;20034;-71
2024/01/29 01:41:18;;;;;;;23.20;10.07;;;-0.90;99.90;;;;;;5007438;28;20045;-69
2024/01/29 01:43:44;;;;;;;21.00;8.95;;;-0.80;99.90;;;;;;4992755;28;20035;-73
2024/01/29 01:46:22;;;;;;;24.08;9.63;;;-0.80;99.90;;;;;;5004472;28;20031;-71
2024/01/29 01:48:53;;;;;;;26.05;10.48;;;-0.80;99.90;;;;;;5003564;28;20073;-71
2024/01/29 01:51:19;;;;;;;;;;;-0.70;99.90;;;;;;5022725;28;20666;-71
2024/01/29 01:53:45;;;;;;;22.15;9.52;;;-0.70;99.90;;;;;;5002443;28;19920;-74
2024/01/29 01:56:11;;;;;;;23.60;10.15;;;-0.80;99.90;;;;;;4991574;28;20062;-71
2024/01/29 01:58:40;;;;;;;28.27;9.88;;;-0.90;99.90;;;;;;4999019;28;20042;-69
2024/01/29 02:01:06;;;;;;;21.92;9.18;;;-0.90;99.90;;;;;;5003396;28;20100;-72
2024/01/29 02:03:32;;;;;;;22.17;10.13;;;-0.90;99.90;;;;;;4996855;28;20034;-71
2024/01/29 02:05:58;;;;;;;24.77;9.93;;;-0.90;99.90;;;;;;5006345;28;20041;-71
2024/01/29 02:08:24;;;;;;;22.92;9.63;;;-0.90;99.90;;;;;;4997097;28;20038;-70
2024/01/29 02:10:52;;;;;;;23.27;9.18;;;-1.00;99.90;;;;;;5001692;28;20088;-71
2024/01/29 02:13:18;;;;;;;24.38;9.50;;;-1.00;99.90;;;;;;5008546;28;20029;-72
2024/01/29 02:15:44;;;;;;;19.92;9.10;;;-1.10;99.90;;;;;;5009799;28;20034;-73
2024/01/29 02:18:09;;;;;;;23.38;10.18;;;-1.10;99.90;;;;;;5001912;28;20037;-71
2024/01/29 02:20:35;;;;;;;23.85;10.30;;;-1.10;99.90;;;;;;4991076;28;20084;-70
2024/01/29 02:23:01;;;;;;;25.13;10.15;;;-1.10;99.90;;;;;;4999207;28;20028;-70
2024/01/29 02:25:27;;;;;;;25.95;9.98;;;-1.10;99.90;;;;;;4994910;28;20031;-71
2024/01/29 02:27:53;;;;;;;23.92;10.20;;;-1.20;99.90;;;;;;5000513;28;20033;-70
2024/01/29 02:30:19;;;;;;;25.08;10.00;;;-1.20;99.90;;;;;;4990277;28;20061;-72
2024/01/29 02:32:45;;;;;;;23.63;9.80;;;-1.20;99.90;;;;;;4996512;28;20119;-73
2024/01/29 02:35:10;;;;;;;23.73;9.18;;;-1.20;99.90;;;;;;5009076;28;20176;-71
2024/01/29 02:37:36;;;;;;;19.48;9.02;;;-1.10;99.90;;;;;;5007966;28;20132;-72
2024/01/29 02:40:04;;;;;;;20.48;9.52;;;-1.10;99.90;;;;;;5009079;28;20045;-71
2024/01/29 02:42:29;;;;;;;21.25;9.25;;;-1.00;99.90;;;;;;5009508;28;20040;-70
2024/01/29 02:44:55;;;;;;;20.90;8.95;;;-1.00;99.90;;;;;;5008454;28;20054;-71
2024/01/29 02:47:21;;;;;;;21.20;9.10;;;-1.00;99.90;;;;;;5008410;28;20026;-71
2024/01/29 02:49:46;;;;;;;19.55;8.43;;;-1.00;99.90;;;;;;5008872;28;20635;-73
2024/01/29 02:52:13;;;;;;;26.45;9.73;;;-1.10;99.90;;;;;;5009483;28;20100;-71
2024/01/29 02:54:39;;;;;;;21.08;9.48;;;-1.00;99.90;;;;;;5009437;28;20048;-71
2024/01/29 02:57:05;;;;;;;22.70;9.43;;;-1.00;99.90;;;;;;5008683;28;20030;-71
2024/01/29 02:59:31;;;;;;;25.23;9.70;;;-1.10;99.90;;;;;;5008457;28;20041;-71
2024/01/29 03:01:56;;;;;;;24.48;9.75;;;-1.20;99.90;;;;;;5006022;28;20117;-70
2024/01/29 03:04:22;;;;;;;22.67;9.25;;;-1.20;99.90;;;;;;5009083;28;20494;-71
2024/01/29 03:06:48;;;;;;;22.05;9.57;;;-1.20;99.90;;;;;;5008427;28;20151;-72
2024/01/29 03:09:17;;;;;;;24.83;9.85;;;-1.40;99.90;;;;;;4995420;28;20038;-70
2024/01/29 03:11:43;;;;;;;22.63;9.07;;;-1.40;99.90;;;;;;4989528;28;20034;-70
2024/01/29 03:14:08;;;;;;;25.13;9.05;;;-1.40;99.90;;;;;;4988903;28;20348;-70
2024/01/29 03:16:34;;;;;;;20.17;9.00;;;-1.40;99.90;;;;;;5005324;28;20670;-71
2024/01/29 03:19:00;;;;;;;21.52;9.07;;;-1.40;99.90;;;;;;5002541;28;20034;-70
2024/01/29 03:21:27;;;;;;;20.27;9.10;;;-1.40;99.90;;;;;;5008553;28;20360;-69
2024/01/29 03:23:54;;;;;;;23.98;9.68;;;-1.40;99.90;;;;;;5003174;28;20041;-69
2024/01/29 03:26:19;;;;;;;22.40;9.85;;;-1.50;99.90;;;;;;5007029;28;20018;-69
2024/01/29 03:28:45;;;;;;;21.35;8.82;;;-1.40;99.90;;;;;;5006810;28;20541;-70
2024/01/29 03:31:10;;;;;;;26.20;9.50;;;-1.40;99.90;;;;;;5007942;28;20862;-69
2024/01/29 03:33:36;;;;;;;24.40;9.18;;;-1.40;99.90;;;;;;5004277;28;20037;-68
2024/01/29 03:36:05;;;;;;;26.45;9.23;;;-1.40;99.90;;;;;;4994148;28;20148;-69
2024/01/29 03:38:32;;;;;;;19.25;8.02;;;-1.40;99.90;;;;;;5007760;28;20030;-68
2024/01/29 03:40:58;;;;;;;23.33;9.00;;;-1.30;99.90;;;;;;5007344;28;20017;-70
2024/01/29 03:43:24;;;;;;;23.00;9.32;;;-1.30;99.90;;;;;;5008731;28;20116;-69
2024/01/29 03:45:53;;;;;;;22.20;9.20;;;-1.20;99.90;;;;;;5003294;28;20444;-72
2024/01/29 03:48:20;;;;;;;21.35;9.23;;;-1.20;99.90;;;;;;5023504;28;20052;-70
2024/01/29 03:50:46;;;;;;;23.58;9.35;;;-1.20;99.90;;;;;;5008630;28;20113;-69
2024/01/29 03:53:12;;;;;;;20.15;9.05;;;-1.30;99.90;;;;;;5007027;28;20137;-69
2024/01/29 03:55:37;;;;;;;21.13;9.02;;;-1.30;99.90;;;;;;5007839;28;20034;-69
2024/01/29 03:58:03;;;;;;;21.95;9.75;;;-1.40;99.90;;;;;;5006910;28;20625;-69
2024/01/29 04:00:30;;;;;;;25.55;9.35;;;-1.40;99.90;;;;;;5005318;28;20041;-68
2024/01/29 04:02:56;;;;;;;21.58;8.98;;;-1.40;99.90;;;;;;4996343;28;20030;-69
2024/01/29 04:05:22;;;;;;;21.75;9.32;;;-1.40;99.90;;;;;;4990094;28;20134;-68
2024/01/29 04:07:48;;;;;;;23.77;9.13;;;-1.30;99.90;;;;;;4989005;28;20110;-68
2024/01/29 04:10:15;;;;;;;22.77;8.95;;;-1.30;99.90;;;;;;4988337;28;20054;-68
2024/01/29 04:12:41;;;;;;;22.58;9.57;;;-1.20;99.90;;;;;;5006269;28;20072;-69
2024/01/29 04:15:07;;;;;;;19.92;9.50;;;-1.20;99.90;;;;;;5007530;28;20534;-69
2024/01/29 04:17:32;;;;;;;25.25;9.65;;;-1.20;99.90;;;;;;4994845;28;20422;-68
2024/01/29 04:19:58;;;;;;;19.67;9.50;;;-1.30;99.90;;;;;;5002799;28;20109;-68
2024/01/29 04:22:25;;;;;;;23.63;9.73;;;-1.30;99.90;;;;;;4995921;28;20034;-69
2024/01/29 04:24:51;;;;;;;22.73;9.90;;;-1.30;99.90;;;;;;5008997;28;20036;-71
2024/01/29 04:27:17;;;;;;;24.25;9.70;;;-1.30;99.90;;;;;;4996862;28;20023;-70
2024/01/29 04:29:42;;;;;;;21.65;9.30;;;-1.30;99.90;;;;;;5002549;28;20442;-69
2024/01/29 04:32:08;;;;;;;21.38;8.95;;;-1.30;99.90;;;;;;5005132;28;20128;-68
2024/01/29 04:34:34;;;;;;;23.30;10.18;;;-1.40;99.90;;;;;;5012084;28;20022;-69
2024/01/29 04:36:59;;;;;;;19.90;9.20;;;-1.30;99.90;;;;;;5010516;28;20034;-68
2024/01/29 04:39:25;;;;;;;22.00;9.63;;;-1.30;99.90;;;;;;4992492;28;20030;-69
2024/01/29 04:41:52;;;;;;;24.20;10.02;;;-1.30;99.90;;;;;;5002174;28;20033;-69
2024/01/29 04:44:17;;;;;;;20.65;8.98;;;-1.40;99.90;;;;;;4996509;28;20505;-70
2024/01/29 04:46:43;;;;;;;21.73;9.23;;;-1.40;99.90;;;;;;5011352;28;20068;-69
2024/01/29 04:49:09;;;;;;;24.58;10.45;;;-1.40;99.90;;;;;;5007021;28;20057;-69
2024/01/29 04:51:34;;;;;;;22.08;9.65;;;-1.40;99.90;;;;;;4994180;28;20072;-68
2024/01/29 04:54:00;;;;;;;25.30;9.32;;;-1.40;99.90;;;;;;4992691;28;20057;-69
2024/01/29 04:56:26;;;;;;;29.80;10.18;;;-1.40;99.90;;;;;;5004520;28;20431;-69
2024/01/29 04:58:51;;;;;;;25.80;10.63;;;-1.40;99.90;;;;;;5002435;28;20049;-68
2024/01/29 05:01:17;;;;;;;22.70;10.13;;;-1.50;99.90;;;;;;5003634;28;20030;-69
2024/01/29 05:03:43;;;;;;;24.77;10.15;;;-1.60;99.90;;;;;;4997194;28;20034;-69
2024/01/29 05:06:09;;;;;;;20.40;9.55;;;-1.60;99.90;;;;;;4999856;28;20031;-68
2024/01/29 05:08:35;;;;;;;24.10;9.55;;;-1.50;99.90;;;;;;5007514;28;20502;-69
2024/01/29 05:11:00;;;;;;;23.10;9.57;;;-1.50;99.90;;;;;;5009670;28;20037;-69
2024/01/29 05:13:26;;;;;;;23.38;10.20;;;-1.50;99.90;;;;;;5010231;28;20026;-69
2024/01/29 05:15:52;;;;;;;24.17;10.05;;;-1.50;99.90;;;;;;4998841;28;20038;-70
2024/01/29 05:18:17;;;;;;;25.00;10.23;;;-1.50;99.90;;;;;;5003796;28;20037;-69
2024/01/29 05:20:43;;;;;;;22.67;9.88;;;-1.60;99.90;;;;;;4994243;28;20421;-69
2024/01/29 05:23:09;;;;;;;25.30;9.70;;;-1.60;99.90;;;;;;5005755;28;20033;-68
2024/01/29 05:25:34;;;;;;;26.33;10.57;;;-1.70;99.90;;;;;;5005026;28;20026;-67
2024/01/29 05:28:00;;;;;;;21.05;9.18;;;-1.70;99.90;;;;;;5008560;28;20037;-69
2024/01/29 05:30:26;;;;;;;25.20;10.38;;;-1.70;99.90;;;;;;4999616;28;20040;-69
2024/01/29 05:32:51;;;;;;;25.50;10.80;;;-1.70;99.90;;;;;;5005611;28;20048;-69
2024/01/29 05:35:17;;;;;;;24.92;10.90;;;-1.70;99.90;;;;;;5004568;28;20820;-70
2024/01/29 05:37:43;;;;;;;28.65;11.23;;;-1.70;99.90;;;;;;5008450;28;20442;-69
2024/01/29 05:40:11;;;;;;;25.50;10.23;;;-1.70;99.90;;;;;;5004457;28;20065;-69
2024/01/29 05:42:37;;;;;;;25.58;10.65;;;-1.70;99.90;;;;;;5006861;28;20030;-70
2024/01/29 05:45:03;;;;;;;28.63;11.25;;;-1.70;99.90;;;;;;5008047;28;20150;-70
2024/01/29 05:47:29;;;;;;;26.83;11.48;;;-1.60;99.90;;;;;;5006151;28;20069;-69
2024/01/29 05:49:54;;;;;;;22.90;10.43;;;-1.60;99.90;;;;;;4993039;28;20085;-70
2024/01/29 05:52:20;;;;;;;27.70;10.60;;;-1.60;99.90;;;;;;5007667;28;20026;-71
2024/01/29 05:54:46;;;;;;;25.25;10.70;;;-1.70;99.90;;;;;;4995940;28;20044;-70
2024/01/29 05:57:11;;;;;;;24.20;9.63;;;-1.80;99.90;;;;;;5005167;28;20038;-70
2024/01/29 05:59:41;;;;;;;24.75;10.13;;;-2.00;99.90;;;;;;5005460;28;20042;-69
2024/01/29 06:02:07;;;;;;;26.23;10.93;;;-2.10;99.90;;;;;;5002854;28;20068;-70
2024/01/29 06:04:33;;;;;;;23.73;10.30;;;-2.10;99.90;;;;;;5001642;28;20425;-69
2024/01/29 06:06:58;;;;;;;28.30;11.40;;;-2.10;99.90;;;;;;5002794;28;20037;-71
2024/01/29 06:09:24;;;;;;;26.48;11.40;;;-1.90;99.90;;;;;;5007487;28;20088;-68
2024/01/29 06:11:50;;;;;;;27.33;10.60;;;-1.90;99.90;;;;;;4997923;28;20034;-70
2024/01/29 06:14:16;;;;;;;30.45;10.85;;;-2.20;99.90;;;;;;5000141;28;20054;-69
2024/01/29 06:16:45;;;;;;;30.25;11.02;;;-2.20;99.90;;;;;;5004170;28;20822;-68
2024/01/29 06:19:15;;;;;;;25.50;11.05;;;-2.30;99.90;;;;;;4998055;28;20045;-69
2024/01/29 06:21:44;;;;;;;27.15;11.35;;;-2.20;99.90;;;;;;5003652;28;20513;-68
2024/01/29 06:24:10;;;;;;;27.90;11.18;;;-2.10;99.90;;;;;;4995599;28;20629;-68
2024/01/29 06:26:36;;;;;;;29.38;11.50;;;-2.00;99.90;;;;;;4990461;28;20026;-70
2024/01/29 06:29:02;;;;;;;26.58;11.40;;;-1.90;99.90;;;;;;4989615;28;20044;-72
2024/01/29 06:31:27;;;;;;;31.27;12.68;;;-1.90;99.90;;;;;;4990526;28;20037;-68
2024/01/29 06:33:53;;;;;;;27.67;11.15;;;-1.80;99.90;;;;;;4990412;28;20022;-68
2024/01/29 06:36:19;;;;;;;28.90;11.50;;;-1.90;99.90;;;;;;4999248;28;20026;-68
2024/01/29 06:38:45;;;;;;;26.05;11.05;;;-1.90;99.90;;;;;;4990270;28;20387;-69
2024/01/29 06:41:24;;;;;;;28.08;11.90;;;-1.90;99.90;;;;;;4988844;28;20031;-67
2024/01/29 06:43:51;;;;;;;26.75;10.52;;;-1.90;99.90;;;;;;4989976;28;20030;-68
2024/01/29 06:46:17;;;;;;;25.90;10.73;;;-1.90;99.90;;;;;;4989485;28;20095;-69
2024/01/29 06:48:43;;;;;;;25.92;10.52;;;-1.90;99.90;;;;;;5003949;28;20124;-68
2024/01/29 06:51:08;;;;;;;28.90;10.48;;;-2.00;99.90;;;;;;5008611;28;20489;-68
2024/01/29 06:53:35;;;;;;;29.23;10.93;;;-1.90;99.90;;;;;;5009369;28;20030;-68
2024/01/29 06:56:06;;;;;;;25.83;10.95;;;-1.90;99.90;;;;;;5009193;28;20033;-71
2024/01/29 06:58:32;;;;;;;26.42;10.90;;;-1.90;99.90;;;;;;5009599;28;20038;-69
2024/01/29 07:01:01;;;;;;;29.65;11.27;;;-1.90;99.90;;;;;;5007394;28;20018;-68
2024/01/29 07:03:27;;;;;;;28.00;11.18;;;-1.80;99.90;;;;;;5009306;28;20029;-69
2024/01/29 07:05:53;;;;;;;28.00;11.07;;;-1.70;99.90;;;;;;5007961;28;20080;-68
2024/01/29 07:08:19;;;;;;;24.50;10.00;;;-1.70;99.90;;;;;;5008499;28;20861;-69
2024/01/29 07:10:45;;;;;;;27.80;10.77;;;-1.60;99.90;;;;;;5009658;28;20038;-68
2024/01/29 07:13:11;;;;;;;27.65;10.30;;;-1.70;99.90;;;;;;5008385;28;20037;-68
2024/01/29 07:15:38;;;;;;;27.55;10.52;;;-1.70;99.90;;;;;;5004851;28;20038;-70
2024/01/29 07:18:04;;;;;;;29.20;11.15;;;-1.60;99.90;;;;;;4987722;28;20029;-71
2024/01/29 07:20:31;;;;;;;26.75;10.60;;;-1.50;99.90;;;;;;4989685;28;20781;-69
2024/01/29 07:22:57;;;;;;;28.85;13.00;;;-1.40;99.90;;;;;;4989662;28;20026;-69
2024/01/29 07:25:23;;;;;;;26.58;11.15;;;-1.20;99.90;;;;;;4988498;28;20037;-68
2024/01/29 07:27:48;;;;;;;25.83;10.70;;;-1.20;99.90;;;;;;4997373;28;20398;-69
2024/01/29 07:30:14;;;;;;;25.15;10.63;;;-1.20;99.90;;;;;;5008257;28;20390;-69
2024/01/29 07:32:40;;;;;;;22.45;10.60;;;-1.10;99.90;;;;;;5008751;28;20489;-69
2024/01/29 07:35:07;;;;;;;23.88;10.00;;;-1.00;99.90;;;;;;5006854;28;20026;-70
2024/01/29 07:37:32;;;;;;;25.13;11.13;;;-0.90;99.90;;;;;;5007669;28;20045;-69
2024/01/29 07:39:58;;;;;;;26.38;11.20;;;-0.80;99.90;;;;;;5008954;28;20668;-68
2024/01/29 07:42:24;;;;;;;24.85;10.85;;;-0.80;99.90;;;;;;5007928;28;20041;-69
2024/01/29 07:44:50;;;;;;;25.05;11.05;;;-0.70;99.90;;;;;;5008571;28;20054;-70
2024/01/29 07:47:15;;;;;;;32.25;13.25;;;-0.50;99.90;;;;;;5008116;28;20038;-70
2024/01/29 07:49:41;;;;;;;32.95;13.10;;;-0.50;99.90;;;;;;5008902;28;20053;-70
2024/01/29 07:52:08;;;;;;;28.35;12.57;;;-0.60;99.90;;;;;;5006730;28;20107;-70
2024/01/29 07:54:34;;;;;;;28.40;12.57;;;-0.50;99.90;;;;;;5003876;28;20050;-70
2024/01/29 07:57:00;;;;;;;26.25;11.23;;;-0.30;99.90;;;;;;4995671;28;20435;-70
2024/01/29 07:59:25;;;;;;;25.30;11.40;;;-0.20;99.90;;;;;;4992548;28;20129;-69
2024/01/29 08:01:51;;;;;;;25.52;10.45;;;-0.10;99.90;;;;;;5001962;28;20034;-70
2024/01/29 08:04:16;;;;;;;26.95;10.43;;;0.00;99.90;;;;;;5011971;28;20467;-70
2024/01/29 08:06:42;;;;;;;25.50;10.73;;;0.30;99.90;;;;;;5011290;28;20041;-70
2024/01/29 08:09:08;;;;;;;24.52;10.18;;;0.50;99.90;;;;;;5011810;28;20032;-70
2024/01/29 08:11:35;;;;;;;23.95;10.25;;;0.50;99.90;;;;;;5010110;28;20026;-70
2024/01/29 08:14:00;;;;;;;25.67;11.32;;;0.70;99.90;;;;;;5012250;28;20116;-71
2024/01/29 08:16:26;;;;;;;32.63;13.63;;;0.70;99.90;;;;;;5011769;28;20108;-71
2024/01/29 08:18:51;;;;;;;34.65;14.98;;;0.70;99.90;;;;;;5011813;28;20406;-71
2024/01/29 08:21:18;;;;;;;40.42;16.08;;;0.80;99.90;;;;;;5012828;28;20040;-70
2024/01/29 08:23:44;;;;;;;47.72;17.88;;;0.90;99.90;;;;;;5011024;28;20494;-71
2024/01/29 08:26:09;;;;;;;33.53;15.20;;;0.90;99.90;;;;;;4992000;28;20117;-71
2024/01/29 08:28:35;;;;;;;32.65;14.88;;;1.00;99.90;;;;;;4992669;28;20129;-71
2024/01/29 08:31:01;;;;;;;30.58;14.43;;;0.90;99.90;;;;;;4992661;28;20069;-71
2024/01/29 08:33:29;;;;;;;34.83;15.88;;;0.90;99.90;;;;;;5009562;28;20101;-71
2024/01/29 08:35:56;;;;;;;32.72;14.32;;;1.00;99.90;;;;;;5012078;28;20034;-71
2024/01/29 08:38:22;;;;;;;34.20;14.75;;;1.20;99.90;;;;;;5011216;28;20387;-70
2024/01/29 08:40:49;;;;;;;35.70;15.50;;;1.30;99.90;;;;;;5010020;28;20026;-70
2024/01/29 08:43:15;;;;;;;30.25;13.93;;;1.50;99.90;;;;;;5011373;28;20493;-71
2024/01/29 08:45:41;;;;;;;31.77;14.00;;;1.80;99.90;;;;;;5012089;28;20081;-71
2024/01/29 08:48:07;;;;;;;28.60;12.63;;;2.00;99.90;;;;;;5002448;28;20064;-72
2024/01/29 08:50:33;;;;;;;32.63;14.93;;;2.20;99.90;;;;;;5011537;28;20129;-71
2024/01/29 08:52:59;;;;;;;27.27;11.98;;;2.40;99.90;;;;;;4993930;28;20088;-71
2024/01/29 08:55:25;;;;;;;24.63;11.95;;;2.40;99.90;;;;;;4991856;28;20038;-71
2024/01/29 08:57:50;;;;;;;23.50;12.10;;;2.60;99.90;;;;;;4991974;28;20412;-71
2024/01/29 09:00:16;;;;;;;28.35;12.40;;;2.50;99.90;;;;;;4991436;28;20062;-72
2024/01/29 09:02:43;;;;;;;26.55;11.63;;;2.70;99.90;;;;;;4992136;28;20038;-71
2024/01/29 09:05:09;;;;;;;26.40;11.70;;;2.80;99.90;;;;;;4996480;28;20034;-73
2024/01/29 09:07:34;;;;;;;28.75;12.40;;;2.90;99.90;;;;;;5011347;28;20036;-72
2024/01/29 09:10:00;;;;;;;28.30;12.52;;;2.90;99.90;;;;;;5002293;28;20545;-72
2024/01/29 09:12:26;;;;;;;26.88;11.95;;;3.00;99.90;;;;;;4991263;28;20038;-71
2024/01/29 09:14:51;;;;;;;26.25;11.52;;;3.20;99.90;;;;;;4990421;28;20585;-71
2024/01/29 09:17:17;;;;;;;29.52;12.93;;;3.60;99.90;;;;;;5000224;28;20030;-71
2024/01/29 09:19:45;;;;;;;31.27;13.05;;;3.80;99.90;;;;;;5011599;28;20037;-72
2024/01/29 09:22:14;;;;;;;29.67;12.75;;;4.10;99.90;;;;;;5009429;28;20052;-72
2024/01/29 09:24:39;;;;;;;32.85;14.85;;;4.20;99.90;;;;;;5009828;28;20042;-71
2024/01/29 09:27:05;;;;;;;35.75;14.52;;;4.40;99.90;;;;;;5011338;28;20022;-71
2024/01/29 09:29:31;;;;;;;31.00;14.55;;;4.60;99.90;;;;;;5010149;28;20034;-71
2024/01/29 09:31:56;;;;;;;36.65;15.98;;;4.90;99.90;;;;;;5003887;28;20041;-71
2024/01/29 09:34:24;;;;;;;37.38;15.93;;;5.10;99.90;;;;;;4990657;28;20030;-71
2024/01/29 09:36:50;;;;;;;35.58;16.52;;;5.40;99.90;;;;;;5008554;28;20038;-72
2024/01/29 09:39:17;;;;;;;32.45;16.95;;;5.60;99.90;;;;;;5010253;28;20037;-72
2024/01/29 09:41:43;;;;;;;36.85;15.75;;;5.70;99.90;;;;;;5006539;28;20022;-72
2024/01/29 09:44:12;;;;;;;36.17;16.63;;;6.00;99.90;;;;;;4990675;28;20380;-72
2024/01/29 09:46:39;;;;;;;31.77;15.55;;;6.10;99.90;;;;;;4991360;28;20022;-71
2024/01/29 09:49:06;;;;;;;32.72;15.93;;;6.30;99.90;;;;;;4991237;28;20046;-71
2024/01/29 09:51:35;;;;;;;35.65;15.70;;;6.50;99.90;;;;;;5005615;28;20036;-71
2024/01/29 09:54:02;;;;;;;36.30;15.23;;;6.60;99.90;;;;;;4991240;28;20033;-71
2024/01/29 09:56:28;;;;;;;33.58;16.88;;;6.70;99.90;;;;;;4990490;28;20041;-72
2024/01/29 09:58:55;;;;;;;35.83;16.88;;;6.90;99.90;;;;;;4991151;28;20042;-72
2024/01/29 10:01:22;;;;;;;39.33;16.77;;;7.20;99.90;;;;;;4988967;28;20088;-72
2024/01/29 10:03:48;;;;;;;37.03;16.85;;;7.40;99.90;;;;;;5009944;28;20105;-72
2024/01/29 10:06:14;;;;;;;36.75;17.45;;;7.40;99.90;;;;;;4993672;28;20376;-73
2024/01/29 10:08:40;;;;;;;36.53;17.55;;;7.40;99.90;;;;;;5009978;28;20084;-71
2024/01/29 10:11:07;;;;;;;37.40;18.13;;;7.50;99.90;;;;;;5010031;28;20026;-72
2024/01/29 10:13:33;;;;;;;36.13;17.85;;;7.80;99.90;;;;;;5006623;28;20026;-71
2024/01/29 10:15:58;;;;;;;40.42;17.65;;;7.90;99.90;;;;;;4989713;28;20054;-71
2024/01/29 10:18:24;;;;;;;37.30;18.38;;;8.10;99.90;;;;;;5005929;28;20164;-70
2024/01/29 10:21:01;;;;;;;36.50;17.80;;;8.30;99.90;;;;;;5008885;28;20455;-71
2024/01/29 10:23:27;;;;;;;33.78;17.75;;;8.30;99.90;;;;;;5010601;28;20026;-71
2024/01/29 10:25:56;;;;;;;34.22;18.17;;;8.40;99.90;;;;;;5011836;28;20034;-71
2024/01/29 10:28:26;;;;;;;39.75;18.33;;;8.50;99.90;;;;;;5010370;28;20041;-72
2024/01/29 10:30:55;;;;;;;34.08;17.55;;;8.80;99.90;;;;;;5008976;28;20045;-72
2024/01/29 10:33:22;;;;;;;33.17;16.30;;;9.10;99.90;;;;;;5011482;28;20088;-72
2024/01/29 10:35:48;;;;;;;33.92;16.98;;;9.30;99.90;;;;;;5011402;28;20026;-71
2024/01/29 10:38:18;;;;;;;33.25;15.85;;;9.50;99.90;;;;;;5009635;28;20076;-72
2024/01/29 10:40:45;;;;;;;32.47;16.20;;;9.80;99.90;;;;;;4995699;28;20058;-72
2024/01/29 10:43:19;;;;;;;34.92;15.93;;;9.90;99.90;;;;;;4990143;28;20073;-72
2024/01/29 10:45:53;;;;;;;34.38;16.55;;;9.90;99.90;;;;;;4989664;28;20054;-72
2024/01/29 10:48:22;;;;;;;28.83;15.10;;;10.10;99.90;;;;;;4989018;28;20089;-73
2024/01/29 10:50:49;;;;;;;39.03;18.17;;;10.20;99.90;;;;;;5002423;28;20113;-72
2024/01/29 10:53:18;;;;;;;36.20;15.80;;;10.50;99.90;;;;;;5009210;28;20719;-73
2024/01/29 10:55:46;;;;;;;31.52;15.70;;;10.80;99.90;;;;;;5009652;28;20026;-71
2024/01/29 10:58:16;;;;;;;29.70;15.55;;;11.00;99.90;;;;;;5009685;28;20033;-71
2024/01/29 11:00:44;;;;;;;33.85;16.10;;;11.10;99.90;;;;;;4997944;28;20042;-72
2024/01/29 11:03:13;;;;;;;29.77;16.23;;;11.30;99.90;;;;;;4989926;28;20113;-72
2024/01/29 11:05:43;;;;;;;34.90;16.05;;;11.60;99.90;;;;;;4989465;28;20067;-71
2024/01/29 11:08:11;;;;;;;;;;;11.50;99.90;;;;;;4990316;28;20451;-72
2024/01/29 11:10:37;;;;;;;32.35;14.88;;;11.60;99.90;;;;;;4989544;28;20397;-72
2024/01/29 11:13:04;;;;;;;34.60;16.08;;;11.80;99.90;;;;;;4988209;28;20027;-72
2024/01/29 11:15:32;;;;;;;25.63;13.10;;;12.10;99.90;;;;;;4989136;28;20038;-71
2024/01/29 11:17:58;;;;;;;25.70;14.45;;;12.30;99.90;;;;;;4998440;28;20037;-72
2024/01/29 11:20:24;;;;;;;27.17;14.82;;;12.40;99.90;;;;;;5006279;28;20041;-71
2024/01/29 11:22:59;;;;;;;27.98;15.32;;;12.60;99.90;;;;;;5009143;28;20022;-72
2024/01/29 11:25:29;;;;;;;30.60;15.23;;;12.80;99.90;;;;;;5008486;28;20034;-72
2024/01/29 11:27:56;;;;;;;27.98;15.75;;;12.80;99.90;;;;;;5009036;28;20036;-72
2024/01/29 11:30:26;;;;;;;30.38;15.52;;;12.90;99.90;;;;;;5008316;28;20088;-71
2024/01/29 11:32:54;;;;;;;29.50;15.95;;;13.10;99.90;;;;;;4999585;28;20060;-72
2024/01/29 11:35:26;;;;;;;29.05;14.45;;;13.00;99.90;;;;;;5002284;28;20038;-72
2024/01/29 11:37:52;;;;;;;26.85;14.65;;;12.70;99.90;;;;;;5024387;28;20034;-71
2024/01/29 11:40:43;;;;;;;24.23;13.68;;;12.70;99.90;;;;;;5008558;28;20030;-73
2024/01/29 11:43:09;;;;;;;;;;;12.90;99.90;;;;;;5009308;28;20037;-71
2024/01/29 11:45:36;;;;;;;26.60;13.75;;;13.10;99.90;;;;;;5008267;28;19925;-72
2024/01/29 11:48:02;;;;;;;24.45;13.25;;;13.40;99.90;;;;;;5007429;28;20088;-70
2024/01/29 11:50:28;;;;;;;26.42;12.93;;;13.70;99.90;;;;;;5007980;28;20425;-72
2024/01/29 11:52:54;;;;;;;20.95;11.70;;;13.90;99.60;;;;;;5009309;28;20026;-72
2024/01/29 11:55:23;;;;;;;24.95;12.48;;;14.00;99.70;;;;;;4997259;28;20034;-71
2024/01/29 11:57:52;;;;;;;19.50;10.93;;;14.20;99.50;;;;;;4989616;28;20031;-71
2024/01/29 12:00:19;;;;;;;21.77;11.80;;;14.40;98.30;;;;;;5002953;28;20050;-71
2024/01/29 12:02:48;;;;;;;19.77;10.90;;;14.50;98.00;;;;;;5008470;28;20112;-71
2024/01/29 12:05:18;;;;;;;18.92;11.05;;;14.40;98.20;;;;;;5008873;28;20041;-72
2024/01/29 12:07:47;;;;;;;22.17;11.02;;;14.50;98.60;;;;;;5008441;28;20026;-72
2024/01/29 12:10:16;;;;;;;20.05;11.45;;;14.30;98.60;;;;;;5007578;28;20493;-72
2024/01/29 12:12:42;;;;;;;17.83;10.18;;;14.20;98.50;;;;;;5007286;28;20136;-72
2024/01/29 12:15:12;;;;;;;17.75;9.98;;;14.30;96.90;;;;;;5007605;28;20030;-72
2024/01/29 12:17:44;;;;;;;18.05;9.55;;;14.00;96.80;;;;;;5003010;28;20519;-71
2024/01/29 12:20:11;;;;;;;18.80;10.20;;;13.90;96.50;;;;;;4989114;28;20030;-73
2024/01/29 12:22:41;;;;;;;15.68;9.48;;;13.90;96.90;;;;;;4988428;28;20054;-73
2024/01/29 12:25:11;;;;;;;20.20;10.07;;;14.10;97.20;;;;;;4989264;28;20565;-71
2024/01/29 12:27:40;;;;;;;15.85;8.88;;;14.20;95.10;;;;;;4987032;28;20078;-71
2024/01/29 12:30:15;;;;;;;17.10;9.85;;;14.30;95.80;;;;;;5000048;28;20056;-71